sensor_id;sensor_type;location;lat;lon;timestamp;temperature;humidity
3344;DHT22;1685;53.104;8.228;2023-03-03T00:01:10;1.70;99.90
3344;DHT22;1685;53.104;8.228;2023-03-03T00:03:37;1.60;99.90
3344;DHT22;1685;53.104;8.228;2023-03-03T00:06:05;1.70;99.90
3344;DHT22;1685;53.104;8.228;2023-03-03T00:08:35;0.60;99.90
3344;DHT22;1685;53.104;8.228;2023-03-03T00:11:02;1.60;99.90
3344;DHT22;1685;53.104;8.228;2023-03-03T00:13:32;1.80;99.90
3344;DHT22;1685;53.104;8.228;2023-03-03T00:16:12;1.90;99.90
3344;DHT22;1685;53.104;8.228;2023-03-03T00:18:41;1.70;99.90
3344;DHT22;1685;53.104;8.228;2023-03-03T00:21:21;1.70;99.90
3344;DHT22;1685;53.104;8.228;2023-03-03T00:23:52;1.70;99.90
3344;DHT22;1685;53.104;8.228;2023-03-03T00:26:21;1.70;99.90
3344;DHT22;1685;53.104;8.228;2023-03-03T00:28:50;1.70;99.90
3344;DHT22;1685;53.104;8.228;2023-03-03T00:31:19;1.90;99.90
3344;DHT22;1685;53.104;8.228;2023-03-03T00:33:48;1.70;99.90
3344;DHT22;1685;53.104;8.228;2023-03-03T00:36:30;1.60;99.90
3344;DHT22;1685;53.104;8.228;2023-03-03T00:39:18;1.60;99.90
3344;DHT22;1685;53.104;8.228;2023-03-03T00:44:40;1.90;99.90
3344;DHT22;1685;53.104;8.228;2023-03-03T00:47:24;1.50;99.90
3344;DHT22;1685;53.104;8.228;2023-03-03T00:49:51;2.00;99.90
3344;DHT22;1685;53.104;8.228;2023-03-03T00:52:18;1.90;99.90
3344;DHT22;1685;53.104;8.228;2023-03-03T00:54:47;1.90;99.90
3344;DHT22;1685;53.104;8.228;2023-03-03T00:57:14;2.10;99.90
3344;DHT22;1685;53.104;8.228;2023-03-03T00:59:40;1.80;99.90
3344;DHT22;1685;53.104;8.228;2023-03-03T01:04:34;1.90;99.90
3344;DHT22;1685;53.104;8.228;2023-03-03T01:07:01;1.80;99.90
3344;DHT22;1685;53.104;8.228;2023-03-03T01:11:56;2.00;99.90
3344;DHT22;1685;53.104;8.228;2023-03-03T01:14:23;1.70;99.90
3344;DHT22;1685;53.104;8.228;2023-03-03T01:19:16;1.90;99.90
3344;DHT22;1685;53.104;8.228;2023-03-03T01:24:10;1.90;99.90
3344;DHT22;1685;53.104;8.228;2023-03-03T01:26:37;2.00;99.90
3344;DHT22;1685;53.104;8.228;2023-03-03T01:29:05;2.40;99.90
3344;DHT22;1685;53.104;8.228;2023-03-03T01:33:59;3.60;99.90
3344;DHT22;1685;53.104;8.228;2023-03-03T01:36:26;1.90;99.90
3344;DHT22;1685;53.104;8.228;2023-03-03T01:38:54;1.90;99.90
3344;DHT22;1685;53.104;8.228;2023-03-03T01:41:20;2.00;99.90
3344;DHT22;1685;53.104;8.228;2023-03-03T01:43:49;2.10;99.90
3344;DHT22;1685;53.104;8.228;2023-03-03T01:46:41;2.10;99.90
3344;DHT22;1685;53.104;8.228;2023-03-03T01:49:13;2.00;99.90
3344;DHT22;1685;53.104;8.228;2023-03-03T01:51:46;2.70;99.90
3344;DHT22;1685;53.104;8.228;2023-03-03T01:54:17;2.00;99.90
3344;DHT22;1685;53.104;8.228;2023-03-03T01:56:47;2.20;99.90
3344;DHT22;1685;53.104;8.228;2023-03-03T01:59:18;2.00;99.90
3344;DHT22;1685;53.104;8.228;2023-03-03T02:01:48;1.90;99.90
3344;DHT22;1685;53.104;8.228;2023-03-03T02:04:16;2.00;99.90
3344;DHT22;1685;53.104;8.228;2023-03-03T02:06:46;2.10;99.90
3344;DHT22;1685;53.104;8.228;2023-03-03T02:09:19;2.00;99.90
3344;DHT22;1685;53.104;8.228;2023-03-03T02:11:50;2.10;99.90
3344;DHT22;1685;53.104;8.228;2023-03-03T02:19:20;2.00;99.90
3344;DHT22;1685;53.104;8.228;2023-03-03T02:24:21;2.10;99.90
3344;DHT22;1685;53.104;8.228;2023-03-03T02:26:52;2.20;99.90
3344;DHT22;1685;53.104;8.228;2023-03-03T02:34:13;2.20;99.90
3344;DHT22;1685;53.104;8.228;2023-03-03T02:36:39;2.10;99.90
3344;DHT22;1685;53.104;8.228;2023-03-03T02:39:10;2.10;99.90
3344;DHT22;1685;53.104;8.228;2023-03-03T02:41:42;2.20;99.90
3344;DHT22;1685;53.104;8.228;2023-03-03T02:44:12;2.20;99.90
3344;DHT22;1685;53.104;8.228;2023-03-03T02:46:42;2.30;99.90
3344;DHT22;1685;53.104;8.228;2023-03-03T02:49:11;2.70;99.90
3344;DHT22;1685;53.104;8.228;2023-03-03T02:51:39;2.10;99.90
3344;DHT22;1685;53.104;8.228;2023-03-03T02:54:07;2.20;99.90
3344;DHT22;1685;53.104;8.228;2023-03-03T03:01:31;2.10;99.90
3344;DHT22;1685;53.104;8.228;2023-03-03T03:04:02;2.60;99.90
3344;DHT22;1685;53.104;8.228;2023-03-03T03:06:29;2.10;99.90
3344;DHT22;1685;53.104;8.228;2023-03-03T03:11:22;2.00;99.90
3344;DHT22;1685;53.104;8.228;2023-03-03T03:18:45;2.20;99.90
3344;DHT22;1685;53.104;8.228;2023-03-03T03:21:12;2.20;99.90
3344;DHT22;1685;53.104;8.228;2023-03-03T03:26:07;2.20;99.90
3344;DHT22;1685;53.104;8.228;2023-03-03T03:31:02;2.60;99.90
3344;DHT22;1685;53.104;8.228;2023-03-03T03:33:29;2.30;99.90
3344;DHT22;1685;53.104;8.228;2023-03-03T03:35:57;2.20;99.90
3344;DHT22;1685;53.104;8.228;2023-03-03T03:38:24;2.30;99.90
3344;DHT22;1685;53.104;8.228;2023-03-03T03:40:51;2.20;99.90
3344;DHT22;1685;53.104;8.228;2023-03-03T03:43:18;2.10;99.90
3344;DHT22;1685;53.104;8.228;2023-03-03T03:45:45;2.20;99.90
3344;DHT22;1685;53.104;8.228;2023-03-03T03:48:11;2.20;99.90
3344;DHT22;1685;53.104;8.228;2023-03-03T03:50:38;2.20;99.90
3344;DHT22;1685;53.104;8.228;2023-03-03T03:53:07;2.30;99.90
3344;DHT22;1685;53.104;8.228;2023-03-03T03:58:00;2.40;99.90
3344;DHT22;1685;53.104;8.228;2023-03-03T04:00:27;2.30;99.90
3344;DHT22;1685;53.104;8.228;2023-03-03T04:07:48;2.30;99.90
3344;DHT22;1685;53.104;8.228;2023-03-03T04:10:16;2.20;99.90
3344;DHT22;1685;53.104;8.228;2023-03-03T04:15:13;2.40;99.90
3344;DHT22;1685;53.104;8.228;2023-03-03T04:17:40;2.40;99.90
3344;DHT22;1685;53.104;8.228;2023-03-03T04:20:09;2.60;99.90
3344;DHT22;1685;53.104;8.228;2023-03-03T04:25:06;2.60;99.90
3344;DHT22;1685;53.104;8.228;2023-03-03T04:27:35;2.30;99.90
3344;DHT22;1685;53.104;8.228;2023-03-03T04:30:04;2.40;99.90
3344;DHT22;1685;53.104;8.228;2023-03-03T04:44:49;2.50;99.90
3344;DHT22;1685;53.104;8.228;2023-03-03T05:02:00;2.40;99.90
3344;DHT22;1685;53.104;8.228;2023-03-03T05:14:17;2.30;99.90
3344;DHT22;1685;53.104;8.228;2023-03-03T05:19:12;2.30;99.90
3344;DHT22;1685;53.104;8.228;2023-03-03T05:24:06;2.40;99.90
3344;DHT22;1685;53.104;8.228;2023-03-03T05:36:23;2.30;99.90
3344;DHT22;1685;53.104;8.228;2023-03-03T05:46:11;2.20;99.90
3344;DHT22;1685;53.104;8.228;2023-03-03T05:51:05;2.20;99.90
3344;DHT22;1685;53.104;8.228;2023-03-03T05:53:33;2.10;99.90
3344;DHT22;1685;53.104;8.228;2023-03-03T05:56:00;2.20;99.90
3344;DHT22;1685;53.104;8.228;2023-03-03T06:05:48;2.10;99.90
3344;DHT22;1685;53.104;8.228;2023-03-03T06:10:43;2.10;99.90
3344;DHT22;1685;53.104;8.228;2023-03-03T06:13:10;2.00;99.90
3344;DHT22;1685;53.104;8.228;2023-03-03T06:15:37;2.20;99.90
3344;DHT22;1685;53.104;8.228;2023-03-03T06:18:04;2.10;99.90
3344;DHT22;1685;53.104;8.228;2023-03-03T06:20:30;2.20;99.90
3344;DHT22;1685;53.104;8.228;2023-03-03T06:22:57;2.20;99.90
3344;DHT22;1685;53.104;8.228;2023-03-03T06:25:24;2.30;99.90
3344;DHT22;1685;53.104;8.228;2023-03-03T06:27:52;2.20;99.90
3344;DHT22;1685;53.104;8.228;2023-03-03T06:30:19;2.20;99.90
3344;DHT22;1685;53.104;8.228;2023-03-03T06:40:08;1.90;99.90
3344;DHT22;1685;53.104;8.228;2023-03-03T06:45:04;3.90;99.90
3344;DHT22;1685;53.104;8.228;2023-03-03T06:52:26;2.20;99.90
3344;DHT22;1685;53.104;8.228;2023-03-03T06:54:55;2.10;99.90
3344;DHT22;1685;53.104;8.228;2023-03-03T06:57:26;2.10;99.90
3344;DHT22;1685;53.104;8.228;2023-03-03T06:59:54;2.20;99.90
3344;DHT22;1685;53.104;8.228;2023-03-03T07:02:24;2.10;99.90
3344;DHT22;1685;53.104;8.228;2023-03-03T07:04:52;2.20;99.90
3344;DHT22;1685;53.104;8.228;2023-03-03T07:07:23;2.20;99.90
3344;DHT22;1685;53.104;8.228;2023-03-03T07:09:52;2.20;99.90
3344;DHT22;1685;53.104;8.228;2023-03-03T07:12:20;2.20;99.90
3344;DHT22;1685;53.104;8.228;2023-03-03T07:14:49;2.20;99.90
3344;DHT22;1685;53.104;8.228;2023-03-03T07:17:22;2.20;99.90
3344;DHT22;1685;53.104;8.228;2023-03-03T07:19:51;2.30;99.90
3344;DHT22;1685;53.104;8.228;2023-03-03T07:22:20;2.20;99.90
3344;DHT22;1685;53.104;8.228;2023-03-03T07:24:49;2.10;99.90
3344;DHT22;1685;53.104;8.228;2023-03-03T07:27:20;2.20;99.90
3344;DHT22;1685;53.104;8.228;2023-03-03T07:29:50;2.30;99.90
3344;DHT22;1685;53.104;8.228;2023-03-03T07:32:27;2.30;99.90
3344;DHT22;1685;53.104;8.228;2023-03-03T07:35:01;2.30;99.90
3344;DHT22;1685;53.104;8.228;2023-03-03T07:37:30;2.30;99.90
3344;DHT22;1685;53.104;8.228;2023-03-03T07:39:58;2.30;99.90
3344;DHT22;1685;53.104;8.228;2023-03-03T07:42:37;2.40;99.90
3344;DHT22;1685;53.104;8.228;2023-03-03T07:45:20;2.20;99.90
3344;DHT22;1685;53.104;8.228;2023-03-03T07:50:18;2.50;99.90
3344;DHT22;1685;53.104;8.228;2023-03-03T07:52:51;3.10;99.90
3344;DHT22;1685;53.104;8.228;2023-03-03T07:55:26;2.60;99.90
3344;DHT22;1685;53.104;8.228;2023-03-03T07:58:00;2.60;99.90
3344;DHT22;1685;53.104;8.228;2023-03-03T08:03:40;2.60;99.90
3344;DHT22;1685;53.104;8.228;2023-03-03T08:06:27;2.70;99.90
3344;DHT22;1685;53.104;8.228;2023-03-03T08:09:00;2.80;99.90
3344;DHT22;1685;53.104;8.228;2023-03-03T08:13:55;2.80;99.90
3344;DHT22;1685;53.104;8.228;2023-03-03T08:16:33;2.90;99.90
3344;DHT22;1685;53.104;8.228;2023-03-03T08:19:02;2.70;99.90
3344;DHT22;1685;53.104;8.228;2023-03-03T08:21:32;2.80;99.90
3344;DHT22;1685;53.104;8.228;2023-03-03T08:31:21;2.80;99.90
3344;DHT22;1685;53.104;8.228;2023-03-03T08:38:44;3.50;99.90
3344;DHT22;1685;53.104;8.228;2023-03-03T08:46:06;3.50;99.90
3344;DHT22;1685;53.104;8.228;2023-03-03T08:51:01;3.60;99.90
3344;DHT22;1685;53.104;8.228;2023-03-03T08:55:59;3.70;99.90
3344;DHT22;1685;53.104;8.228;2023-03-03T09:13:14;4.40;99.90
3344;DHT22;1685;53.104;8.228;2023-03-03T09:18:13;4.80;99.90
3344;DHT22;1685;53.104;8.228;2023-03-03T09:20:42;4.70;99.90
3344;DHT22;1685;53.104;8.228;2023-03-03T09:23:30;4.80;99.90
3344;DHT22;1685;53.104;8.228;2023-03-03T09:26:14;4.80;99.90
3344;DHT22;1685;53.104;8.228;2023-03-03T09:28:45;4.70;99.90
3344;DHT22;1685;53.104;8.228;2023-03-03T09:31:23;4.50;99.90
3344;DHT22;1685;53.104;8.228;2023-03-03T09:36:23;4.80;99.90
3344;DHT22;1685;53.104;8.228;2023-03-03T09:44:39;5.10;99.90
3344;DHT22;1685;53.104;8.228;2023-03-03T09:50:08;5.50;99.90
3344;DHT22;1685;53.104;8.228;2023-03-03T09:52:44;5.50;99.90
3344;DHT22;1685;53.104;8.228;2023-03-03T09:55:23;5.60;99.90
3344;DHT22;1685;53.104;8.228;2023-03-03T09:58:05;5.70;99.90
3344;DHT22;1685;53.104;8.228;2023-03-03T10:00:42;5.90;99.90
3344;DHT22;1685;53.104;8.228;2023-03-03T10:03:31;6.10;99.90
3344;DHT22;1685;53.104;8.228;2023-03-03T10:06:11;6.00;99.90
3344;DHT22;1685;53.104;8.228;2023-03-03T10:09:09;6.10;99.90
3344;DHT22;1685;53.104;8.228;2023-03-03T10:11:46;6.50;99.90
3344;DHT22;1685;53.104;8.228;2023-03-03T10:14:36;6.30;99.90
3344;DHT22;1685;53.104;8.228;2023-03-03T10:17:19;6.90;99.90
3344;DHT22;1685;53.104;8.228;2023-03-03T10:19:56;7.00;99.90
3344;DHT22;1685;53.104;8.228;2023-03-03T10:22:33;7.20;99.90
3344;DHT22;1685;53.104;8.228;2023-03-03T10:25:20;7.10;99.90
3344;DHT22;1685;53.104;8.228;2023-03-03T10:28:15;7.20;99.90
3344;DHT22;1685;53.104;8.228;2023-03-03T10:30:51;6.90;99.90
3344;DHT22;1685;53.104;8.228;2023-03-03T10:33:26;7.00;99.90
3344;DHT22;1685;53.104;8.228;2023-03-03T10:36:09;6.90;99.90
3344;DHT22;1685;53.104;8.228;2023-03-03T10:38:52;6.70;99.90
3344;DHT22;1685;53.104;8.228;2023-03-03T10:41:34;6.80;99.90
3344;DHT22;1685;53.104;8.228;2023-03-03T10:44:34;7.10;99.90
3344;DHT22;1685;53.104;8.228;2023-03-03T10:47:29;7.20;99.90
3344;DHT22;1685;53.104;8.228;2023-03-03T10:50:11;7.10;99.90
3344;DHT22;1685;53.104;8.228;2023-03-03T10:52:45;7.30;99.90
3344;DHT22;1685;53.104;8.228;2023-03-03T10:55:24;7.40;99.90
3344;DHT22;1685;53.104;8.228;2023-03-03T10:58:13;7.40;99.90
3344;DHT22;1685;53.104;8.228;2023-03-03T11:00:45;7.20;99.90
3344;DHT22;1685;53.104;8.228;2023-03-03T11:06:13;7.30;99.90
3344;DHT22;1685;53.104;8.228;2023-03-03T11:08:45;7.40;99.90
3344;DHT22;1685;53.104;8.228;2023-03-03T11:11:19;7.30;99.90
3344;DHT22;1685;53.104;8.228;2023-03-03T11:13:55;7.30;99.90
3344;DHT22;1685;53.104;8.228;2023-03-03T11:16:39;7.20;99.90
3344;DHT22;1685;53.104;8.228;2023-03-03T11:19:18;7.20;99.90
3344;DHT22;1685;53.104;8.228;2023-03-03T11:21:56;7.20;99.90
3344;DHT22;1685;53.104;8.228;2023-03-03T11:24:31;7.30;99.90
3344;DHT22;1685;53.104;8.228;2023-03-03T11:27:08;7.30;99.90
3344;DHT22;1685;53.104;8.228;2023-03-03T11:29:51;7.30;99.90
3344;DHT22;1685;53.104;8.228;2023-03-03T11:32:26;7.70;99.90
3344;DHT22;1685;53.104;8.228;2023-03-03T11:35:05;7.30;99.90
3344;DHT22;1685;53.104;8.228;2023-03-03T11:37:45;7.30;99.90
3344;DHT22;1685;53.104;8.228;2023-03-03T11:40:17;7.30;99.90
3344;DHT22;1685;53.104;8.228;2023-03-03T11:42:57;7.20;99.90
3344;DHT22;1685;53.104;8.228;2023-03-03T11:45:30;7.10;99.90
3344;DHT22;1685;53.104;8.228;2023-03-03T11:48:05;7.20;99.90
3344;DHT22;1685;53.104;8.228;2023-03-03T11:50:35;7.20;99.90
3344;DHT22;1685;53.104;8.228;2023-03-03T11:53:17;7.40;99.90
3344;DHT22;1685;53.104;8.228;2023-03-03T11:55:53;7.30;99.90
3344;DHT22;1685;53.104;8.228;2023-03-03T11:58:25;7.20;99.90
3344;DHT22;1685;53.104;8.228;2023-03-03T12:00:55;7.00;99.90
3344;DHT22;1685;53.104;8.228;2023-03-03T12:03:29;7.20;99.90
3344;DHT22;1685;53.104;8.228;2023-03-03T12:06:11;7.20;99.90
3344;DHT22;1685;53.104;8.228;2023-03-03T12:09:02;7.30;99.90
3344;DHT22;1685;53.104;8.228;2023-03-03T12:11:37;7.30;99.90
3344;DHT22;1685;53.104;8.228;2023-03-03T12:14:10;7.20;99.90
3344;DHT22;1685;53.104;8.228;2023-03-03T12:16:50;7.20;99.90
3344;DHT22;1685;53.104;8.228;2023-03-03T12:19:32;7.30;99.90
3344;DHT22;1685;53.104;8.228;2023-03-03T12:22:15;7.40;99.90
3344;DHT22;1685;53.104;8.228;2023-03-03T12:24:59;7.20;99.90
3344;DHT22;1685;53.104;8.228;2023-03-03T12:27:34;7.20;99.90
3344;DHT22;1685;53.104;8.228;2023-03-03T12:30:11;7.20;99.90
3344;DHT22;1685;53.104;8.228;2023-03-03T12:32:57;7.20;99.90
3344;DHT22;1685;53.104;8.228;2023-03-03T12:35:29;7.50;99.90
3344;DHT22;1685;53.104;8.228;2023-03-03T12:38:00;7.30;99.90
3344;DHT22;1685;53.104;8.228;2023-03-03T12:40:33;7.40;99.90
3344;DHT22;1685;53.104;8.228;2023-03-03T12:43:12;7.40;99.90
3344;DHT22;1685;53.104;8.228;2023-03-03T12:45:50;7.70;99.90
3344;DHT22;1685;53.104;8.228;2023-03-03T12:48:24;7.60;99.90
3344;DHT22;1685;53.104;8.228;2023-03-03T12:51:00;7.70;99.90
3344;DHT22;1685;53.104;8.228;2023-03-03T12:53:43;7.70;99.90
3344;DHT22;1685;53.104;8.228;2023-03-03T12:56:14;7.70;99.90
3344;DHT22;1685;53.104;8.228;2023-03-03T12:58:51;7.60;99.90
3344;DHT22;1685;53.104;8.228;2023-03-03T13:01:32;7.60;99.90
3344;DHT22;1685;53.104;8.228;2023-03-03T13:04:06;7.60;99.90
3344;DHT22;1685;53.104;8.228;2023-03-03T13:06:37;7.50;99.90
3344;DHT22;1685;53.104;8.228;2023-03-03T13:09:25;7.60;99.90
3344;DHT22;1685;53.104;8.228;2023-03-03T13:12:09;7.50;99.90
3344;DHT22;1685;53.104;8.228;2023-03-03T13:14:47;7.30;99.90
3344;DHT22;1685;53.104;8.228;2023-03-03T13:17:20;7.70;99.90
3344;DHT22;1685;53.104;8.228;2023-03-03T13:19:51;7.00;99.90
3344;DHT22;1685;53.104;8.228;2023-03-03T13:22:35;7.40;99.90
3344;DHT22;1685;53.104;8.228;2023-03-03T13:25:08;7.50;99.90
3344;DHT22;1685;53.104;8.228;2023-03-03T13:27:47;7.50;99.90
3344;DHT22;1685;53.104;8.228;2023-03-03T13:30:20;7.40;99.90
3344;DHT22;1685;53.104;8.228;2023-03-03T13:32:53;7.50;99.90
3344;DHT22;1685;53.104;8.228;2023-03-03T13:35:31;7.30;99.90
3344;DHT22;1685;53.104;8.228;2023-03-03T13:37:59;7.40;99.90
3344;DHT22;1685;53.104;8.228;2023-03-03T13:40:41;7.50;99.90
3344;DHT22;1685;53.104;8.228;2023-03-03T13:43:16;7.60;99.90
3344;DHT22;1685;53.104;8.228;2023-03-03T13:45:57;7.70;99.90
3344;DHT22;1685;53.104;8.228;2023-03-03T13:48:41;7.70;99.90
3344;DHT22;1685;53.104;8.228;2023-03-03T13:51:17;7.60;99.90
3344;DHT22;1685;53.104;8.228;2023-03-03T13:53:51;7.90;99.90
3344;DHT22;1685;53.104;8.228;2023-03-03T13:56:34;7.80;99.90
3344;DHT22;1685;53.104;8.228;2023-03-03T13:59:14;7.80;99.90
3344;DHT22;1685;53.104;8.228;2023-03-03T14:01:53;7.60;99.90
3344;DHT22;1685;53.104;8.228;2023-03-03T14:04:30;7.70;99.90
3344;DHT22;1685;53.104;8.228;2023-03-03T14:07:03;7.60;99.90
3344;DHT22;1685;53.104;8.228;2023-03-03T14:09:50;7.80;99.90
3344;DHT22;1685;53.104;8.228;2023-03-03T14:12:28;7.60;99.90
3344;DHT22;1685;53.104;8.228;2023-03-03T14:15:05;7.50;99.90
3344;DHT22;1685;53.104;8.228;2023-03-03T14:17:42;7.50;99.90
3344;DHT22;1685;53.104;8.228;2023-03-03T14:20:17;7.50;99.90
3344;DHT22;1685;53.104;8.228;2023-03-03T14:22:48;7.50;99.90
3344;DHT22;1685;53.104;8.228;2023-03-03T14:25:16;7.50;99.90
3344;DHT22;1685;53.104;8.228;2023-03-03T14:27:59;7.30;99.90
3344;DHT22;1685;53.104;8.228;2023-03-03T14:30:33;7.40;99.90
3344;DHT22;1685;53.104;8.228;2023-03-03T14:33:18;8.00;99.90
3344;DHT22;1685;53.104;8.228;2023-03-03T14:35:50;7.30;99.90
3344;DHT22;1685;53.104;8.228;2023-03-03T14:38:19;7.30;99.90
3344;DHT22;1685;53.104;8.228;2023-03-03T14:40:47;7.30;99.90
3344;DHT22;1685;53.104;8.228;2023-03-03T14:43:23;7.10;99.90
3344;DHT22;1685;53.104;8.228;2023-03-03T14:45:52;7.20;99.90
3344;DHT22;1685;53.104;8.228;2023-03-03T14:48:20;7.20;99.90
3344;DHT22;1685;53.104;8.228;2023-03-03T14:50:52;7.20;99.90
3344;DHT22;1685;53.104;8.228;2023-03-03T14:53:22;7.30;99.90
3344;DHT22;1685;53.104;8.228;2023-03-03T14:56:14;7.30;99.90
3344;DHT22;1685;53.104;8.228;2023-03-03T15:01:15;7.30;99.90
3344;DHT22;1685;53.104;8.228;2023-03-03T15:03:48;7.30;99.90
3344;DHT22;1685;53.104;8.228;2023-03-03T15:06:33;7.10;99.90
3344;DHT22;1685;53.104;8.228;2023-03-03T15:09:24;7.20;99.90
3344;DHT22;1685;53.104;8.228;2023-03-03T15:11:55;7.10;99.90
3344;DHT22;1685;53.104;8.228;2023-03-03T15:14:28;7.30;99.90
3344;DHT22;1685;53.104;8.228;2023-03-03T15:17:15;7.10;99.90
3344;DHT22;1685;53.104;8.228;2023-03-03T15:19:50;7.00;99.90
3344;DHT22;1685;53.104;8.228;2023-03-03T15:22:26;7.00;99.90
3344;DHT22;1685;53.104;8.228;2023-03-03T15:25:04;7.00;99.90
3344;DHT22;1685;53.104;8.228;2023-03-03T15:27:37;6.90;99.90
3344;DHT22;1685;53.104;8.228;2023-03-03T15:30:14;6.90;99.90
3344;DHT22;1685;53.104;8.228;2023-03-03T15:32:52;6.90;99.90
3344;DHT22;1685;53.104;8.228;2023-03-03T15:35:33;6.90;99.90
3344;DHT22;1685;53.104;8.228;2023-03-03T15:38:07;6.90;99.90
3344;DHT22;1685;53.104;8.228;2023-03-03T15:40:45;7.00;99.90
3344;DHT22;1685;53.104;8.228;2023-03-03T15:43:21;7.00;99.90
3344;DHT22;1685;53.104;8.228;2023-03-03T15:45:49;7.20;99.90
3344;DHT22;1685;53.104;8.228;2023-03-03T15:48:33;7.00;99.90
3344;DHT22;1685;53.104;8.228;2023-03-03T15:51:07;6.90;99.90
3344;DHT22;1685;53.104;8.228;2023-03-03T15:53:54;6.90;99.90
3344;DHT22;1685;53.104;8.228;2023-03-03T15:56:28;6.90;99.90
3344;DHT22;1685;53.104;8.228;2023-03-03T15:59:23;6.90;99.90
3344;DHT22;1685;53.104;8.228;2023-03-03T16:02:02;6.80;99.90
3344;DHT22;1685;53.104;8.228;2023-03-03T16:04:37;6.80;99.90
3344;DHT22;1685;53.104;8.228;2023-03-03T16:07:16;6.80;99.90
3344;DHT22;1685;53.104;8.228;2023-03-03T16:09:55;6.80;99.90
3344;DHT22;1685;53.104;8.228;2023-03-03T16:12:32;6.70;99.90
3344;DHT22;1685;53.104;8.228;2023-03-03T16:15:16;6.70;99.90
3344;DHT22;1685;53.104;8.228;2023-03-03T16:17:53;6.60;99.90
3344;DHT22;1685;53.104;8.228;2023-03-03T16:20:27;6.60;99.90
3344;DHT22;1685;53.104;8.228;2023-03-03T16:23:12;6.70;99.90
3344;DHT22;1685;53.104;8.228;2023-03-03T16:25:57;6.60;99.90
3344;DHT22;1685;53.104;8.228;2023-03-03T16:28:31;6.50;99.90
3344;DHT22;1685;53.104;8.228;2023-03-03T16:31:04;6.30;99.90
3344;DHT22;1685;53.104;8.228;2023-03-03T16:33:36;6.40;99.90
3344;DHT22;1685;53.104;8.228;2023-03-03T16:36:16;6.40;99.90
3344;DHT22;1685;53.104;8.228;2023-03-03T16:38:50;6.40;99.90
3344;DHT22;1685;53.104;8.228;2023-03-03T16:41:21;6.30;99.90
3344;DHT22;1685;53.104;8.228;2023-03-03T16:43:58;6.30;99.90
3344;DHT22;1685;53.104;8.228;2023-03-03T16:46:31;6.30;99.90
3344;DHT22;1685;53.104;8.228;2023-03-03T16:49:04;6.30;99.90
3344;DHT22;1685;53.104;8.228;2023-03-03T16:51:40;6.30;99.90
3344;DHT22;1685;53.104;8.228;2023-03-03T16:54:15;6.40;99.90
3344;DHT22;1685;53.104;8.228;2023-03-03T16:56:48;6.20;99.90
3344;DHT22;1685;53.104;8.228;2023-03-03T16:59:38;6.30;99.90
3344;DHT22;1685;53.104;8.228;2023-03-03T17:02:18;6.30;99.90
3344;DHT22;1685;53.104;8.228;2023-03-03T17:04:53;6.30;99.90
3344;DHT22;1685;53.104;8.228;2023-03-03T17:07:36;6.10;99.90
3344;DHT22;1685;53.104;8.228;2023-03-03T17:10:14;6.20;99.90
3344;DHT22;1685;53.104;8.228;2023-03-03T17:12:53;6.20;99.90
3344;DHT22;1685;53.104;8.228;2023-03-03T17:15:40;6.20;99.90
3344;DHT22;1685;53.104;8.228;2023-03-03T17:18:12;6.10;99.90
3344;DHT22;1685;53.104;8.228;2023-03-03T17:20:46;6.10;99.90
3344;DHT22;1685;53.104;8.228;2023-03-03T17:23:32;6.10;99.90
3344;DHT22;1685;53.104;8.228;2023-03-03T17:26:14;6.10;99.90
3344;DHT22;1685;53.104;8.228;2023-03-03T17:28:51;6.00;99.90
3344;DHT22;1685;53.104;8.228;2023-03-03T17:31:30;6.00;99.90
3344;DHT22;1685;53.104;8.228;2023-03-03T17:34:14;6.00;99.90
3344;DHT22;1685;53.104;8.228;2023-03-03T17:36:54;5.90;99.90
3344;DHT22;1685;53.104;8.228;2023-03-03T17:39:44;6.00;99.90
3344;DHT22;1685;53.104;8.228;2023-03-03T17:42:20;5.90;99.90
3344;DHT22;1685;53.104;8.228;2023-03-03T17:44:57;6.00;99.90
3344;DHT22;1685;53.104;8.228;2023-03-03T17:47:38;5.90;99.90
3344;DHT22;1685;53.104;8.228;2023-03-03T17:50:20;5.90;99.90
3344;DHT22;1685;53.104;8.228;2023-03-03T17:52:59;5.90;99.90
3344;DHT22;1685;53.104;8.228;2023-03-03T17:56:03;5.80;99.90
3344;DHT22;1685;53.104;8.228;2023-03-03T17:58:59;5.90;99.90
3344;DHT22;1685;53.104;8.228;2023-03-03T18:01:35;5.80;99.90
3344;DHT22;1685;53.104;8.228;2023-03-03T18:04:28;5.90;99.90
3344;DHT22;1685;53.104;8.228;2023-03-03T18:07:22;5.80;99.90
3344;DHT22;1685;53.104;8.228;2023-03-03T18:10:11;5.80;99.90
3344;DHT22;1685;53.104;8.228;2023-03-03T18:12:48;5.80;99.90
3344;DHT22;1685;53.104;8.228;2023-03-03T18:15:48;5.80;99.90
3344;DHT22;1685;53.104;8.228;2023-03-03T18:18:38;5.80;99.90
3344;DHT22;1685;53.104;8.228;2023-03-03T18:21:12;5.80;99.90
3344;DHT22;1685;53.104;8.228;2023-03-03T18:23:41;5.70;99.90
3344;DHT22;1685;53.104;8.228;2023-03-03T18:26:28;5.70;99.90
3344;DHT22;1685;53.104;8.228;2023-03-03T18:29:10;5.70;99.90
3344;DHT22;1685;53.104;8.228;2023-03-03T18:31:47;5.30;99.90
3344;DHT22;1685;53.104;8.228;2023-03-03T18:34:29;5.70;99.90
3344;DHT22;1685;53.104;8.228;2023-03-03T18:36:58;5.70;99.90
3344;DHT22;1685;53.104;8.228;2023-03-03T18:39:36;5.60;99.90
3344;DHT22;1685;53.104;8.228;2023-03-03T18:42:10;5.50;99.90
3344;DHT22;1685;53.104;8.228;2023-03-03T18:44:39;5.80;99.90
3344;DHT22;1685;53.104;8.228;2023-03-03T18:49:55;5.60;99.90
3344;DHT22;1685;53.104;8.228;2023-03-03T18:52:28;5.70;99.90
3344;DHT22;1685;53.104;8.228;2023-03-03T19:00:57;5.70;99.90
3344;DHT22;1685;53.104;8.228;2023-03-03T19:03:28;5.60;99.90
3344;DHT22;1685;53.104;8.228;2023-03-03T19:08:26;5.50;99.90
3344;DHT22;1685;53.104;8.228;2023-03-03T19:10:56;5.50;99.90
3344;DHT22;1685;53.104;8.228;2023-03-03T19:13:43;5.60;99.90
3344;DHT22;1685;53.104;8.228;2023-03-03T19:16:30;5.60;99.90
3344;DHT22;1685;53.104;8.228;2023-03-03T19:19:04;5.50;99.90
3344;DHT22;1685;53.104;8.228;2023-03-03T19:21:33;5.50;99.90
3344;DHT22;1685;53.104;8.228;2023-03-03T19:24:01;5.60;99.90
3344;DHT22;1685;53.104;8.228;2023-03-03T19:26:52;5.50;99.90
3344;DHT22;1685;53.104;8.228;2023-03-03T19:29:46;5.70;99.90
3344;DHT22;1685;53.104;8.228;2023-03-03T19:32:37;5.70;99.90
3344;DHT22;1685;53.104;8.228;2023-03-03T19:35:16;5.50;99.90
3344;DHT22;1685;53.104;8.228;2023-03-03T19:37:53;5.60;99.90
3344;DHT22;1685;53.104;8.228;2023-03-03T19:40:26;5.60;99.90
3344;DHT22;1685;53.104;8.228;2023-03-03T19:43:01;5.60;99.90
3344;DHT22;1685;53.104;8.228;2023-03-03T19:45:48;6.00;99.90
3344;DHT22;1685;53.104;8.228;2023-03-03T19:48:26;5.80;99.90
3344;DHT22;1685;53.104;8.228;2023-03-03T19:51:04;5.60;99.90
3344;DHT22;1685;53.104;8.228;2023-03-03T19:53:37;5.60;99.90
3344;DHT22;1685;53.104;8.228;2023-03-03T19:56:16;5.60;99.90
3344;DHT22;1685;53.104;8.228;2023-03-03T20:01:49;5.70;99.90
3344;DHT22;1685;53.104;8.228;2023-03-03T20:07:28;5.60;99.90
3344;DHT22;1685;53.104;8.228;2023-03-03T20:10:03;5.90;99.90
3344;DHT22;1685;53.104;8.228;2023-03-03T20:12:48;5.60;99.90
3344;DHT22;1685;53.104;8.228;2023-03-03T20:15:19;5.60;99.90
3344;DHT22;1685;53.104;8.228;2023-03-03T20:17:58;5.60;99.90
3344;DHT22;1685;53.104;8.228;2023-03-03T20:23:37;5.60;99.90
3344;DHT22;1685;53.104;8.228;2023-03-03T20:26:13;5.60;99.90
3344;DHT22;1685;53.104;8.228;2023-03-03T20:31:41;5.40;99.90
3344;DHT22;1685;53.104;8.228;2023-03-03T20:34:14;5.60;99.90
3344;DHT22;1685;53.104;8.228;2023-03-03T20:36:55;5.60;99.90
3344;DHT22;1685;53.104;8.228;2023-03-03T20:39:37;5.60;99.90
3344;DHT22;1685;53.104;8.228;2023-03-03T20:42:13;5.60;99.90
3344;DHT22;1685;53.104;8.228;2023-03-03T20:44:54;5.60;99.90
3344;DHT22;1685;53.104;8.228;2023-03-03T20:47:36;5.70;99.90
3344;DHT22;1685;53.104;8.228;2023-03-03T20:50:20;5.60;99.90
3344;DHT22;1685;53.104;8.228;2023-03-03T20:53:00;5.50;99.90
3344;DHT22;1685;53.104;8.228;2023-03-03T20:55:41;5.60;99.90
3344;DHT22;1685;53.104;8.228;2023-03-03T20:58:13;5.60;99.90